Time;durP1;ratioP1;P1;durP2;ratioP2;P2;SDS_P1;SDS_P2;PMS_P1;PMS_P2;Temp;Humidity;BMP_temperature;BMP_pressure;BME280_temperature;BME280_humidity;BME280_pressure;Samples;Min_cycle;Max_cycle;Signal;HPM_P1;HPM_P2
2021/11/02 00:00:34;;;;;;;288.95;129.07;;;;;;;6.24;66.17;94476.88;5299555;23;20059;-81
2021/11/02 00:03:00;;;;;;;275.33;122.78;;;;;;;6.20;66.29;94459.47;4908220;29;20469;-82
2021/11/02 00:05:25;;;;;;;272.05;119.78;;;;;;;6.21;66.62;94471.38;4886215;29;20047;-81
2021/11/02 00:07:51;;;;;;;244.73;112.10;;;;;;;6.19;66.58;94457.88;4886130;29;20024;-82
2021/11/02 00:10:16;;;;;;;300.88;130.15;;;;;;;6.18;66.26;94472.59;4901024;29;20068;-81
2021/11/02 00:12:42;;;;;;;348.13;145.00;;;;;;;6.16;66.04;94473.78;4892073;29;20044;-82
2021/11/02 00:15:08;;;;;;;381.38;153.38;;;;;;;6.10;66.10;94469.47;4900683;29;20052;-81
2021/11/02 00:17:36;;;;;;;391.27;163.45;;;;;;;6.12;66.01;94473.41;4899269;29;20035;-82
2021/11/02 00:20:04;;;;;;;410.25;170.35;;;;;;;6.14;66.09;94468.03;4885087;29;20060;-81
2021/11/02 00:22:32;;;;;;;366.85;150.90;;;;;;;6.11;66.02;94460.72;4903506;29;20046;-82
2021/11/02 00:25:04;;;;;;;217.15;103.35;;;;;;;6.11;66.35;94460.72;4895692;29;20068;-81
2021/11/02 00:27:31;;;;;;;194.95;96.43;;;;;;;6.13;67.24;94469.84;4918292;29;20025;-82
2021/11/02 00:30:05;;;;;;;232.00;102.90;;;;;;;6.18;66.78;94464.03;4886058;29;20037;-83
2021/11/02 00:32:30;;;;;;;189.82;90.82;;;;;;;6.24;66.26;94450.28;4901027;29;20044;-83
2021/11/02 00:34:57;;;;;;;181.73;86.22;;;;;;;6.20;65.75;94449.13;4916474;29;20032;-83
2021/11/02 00:37:23;;;;;;;209.15;97.75;;;;;;;6.22;65.61;94460.03;4902750;29;20028;-83
2021/11/02 00:39:49;;;;;;;268.23;116.30;;;;;;;6.21;65.95;94450.72;4901158;29;20060;-82
2021/11/02 00:42:14;;;;;;;263.42;110.45;;;;;;;6.19;65.60;94457.88;4902971;29;20088;-82
2021/11/02 00:44:45;;;;;;;142.32;74.57;;;;;;;6.15;66.24;94436.06;4901560;29;20040;-82
2021/11/02 00:49:41;;;;;;;150.23;74.38;;;;;;;6.20;66.37;94438.81;4901580;29;20063;-81
2021/11/02 00:52:07;;;;;;;164.60;76.80;;;;;;;6.18;67.40;94433.03;4902986;29;20044;-82
2021/11/02 00:54:32;;;;;;;133.55;65.07;;;;;;;6.14;67.45;94437.06;4870669;29;20033;-81
2021/11/02 00:56:58;;;;;;;172.18;77.65;;;;;;;6.17;66.62;94440.00;4875085;29;20958;-82
2021/11/02 00:59:23;;;;;;;172.18;77.78;;;;;;;6.20;65.88;94441.38;4906875;29;20508;-83
2021/11/02 01:01:49;;;;;;;206.38;89.63;;;;;;;6.24;65.69;94440.75;4875197;29;20044;-82
2021/11/02 01:04:14;;;;;;;238.75;101.43;;;;;;;6.26;66.64;94437.94;4873457;29;20041;-82
2021/11/02 01:06:39;;;;;;;327.98;130.85;;;;;;;6.27;65.84;94439.53;4874607;29;20088;-82
2021/11/02 01:09:06;;;;;;;265.05;106.35;;;;;;;6.29;65.79;94437.50;4875124;29;20064;-83
2021/11/02 01:11:32;;;;;;;287.30;122.95;;;;;;;6.33;66.07;94439.44;4875270;29;20085;-82
2021/11/02 01:14:00;;;;;;;257.80;107.28;;;;;;;6.32;66.53;94444.81;4873813;29;20056;-82
2021/11/02 01:16:26;;;;;;;306.80;131.85;;;;;;;6.39;66.74;94442.97;4890209;29;20119;-82
2021/11/02 01:18:52;;;;;;;328.70;141.68;;;;;;;6.47;67.03;94440.09;4906741;29;20044;-82
2021/11/02 01:21:18;;;;;;;266.70;118.25;;;;;;;6.49;66.07;94443.25;4906846;29;20036;-82
2021/11/02 01:23:43;;;;;;;219.02;99.18;;;;;;;6.53;66.55;94433.31;4873082;29;20072;-82
2021/11/02 01:26:09;;;;;;;201.00;94.20;;;;;;;6.53;67.59;94439.25;4889762;29;20971;-82
2021/11/02 01:28:34;;;;;;;210.52;96.05;;;;;;;6.54;68.12;94429.72;4876417;29;20060;-82
2021/11/02 01:31:00;;;;;;;197.65;91.55;;;;;;;6.61;67.39;94431.22;4859721;29;20052;-82
2021/11/02 01:33:25;;;;;;;181.95;88.18;;;;;;;6.70;67.16;94423.97;4872524;29;20575;-81
2021/11/02 01:35:51;;;;;;;176.15;81.15;;;;;;;6.70;67.94;94423.19;4874705;29;20850;-82
2021/11/02 01:38:19;;;;;;;139.20;69.65;;;;;;;6.78;67.36;94425.44;4860432;29;20033;-81
2021/11/02 01:40:44;;;;;;;177.48;82.43;;;;;;;6.82;66.69;94418.84;4891074;29;20041;-82
2021/11/02 01:43:11;;;;;;;160.32;80.20;;;;;;;6.78;67.04;94412.53;4884778;29;20052;-82
2021/11/02 01:45:37;;;;;;;162.77;78.75;;;;;;;6.78;68.19;94402.19;4885501;29;20040;-82
2021/11/02 01:48:03;;;;;;;151.48;73.75;;;;;;;6.75;67.29;94403.41;4916946;29;20045;-82
2021/11/02 01:50:28;;;;;;;145.80;70.30;;;;;;;6.80;67.72;94407.94;4905102;29;20037;-82
2021/11/02 01:52:54;;;;;;;177.30;82.32;;;;;;;6.81;67.46;94404.34;4919903;29;20072;-81
2021/11/02 01:55:20;;;;;;;100.65;53.75;;;;;;;6.86;67.26;94392.34;4880034;29;20032;-82
2021/11/02 01:57:46;;;;;;;79.88;45.17;;;;;;;6.88;67.02;94389.56;4891841;29;20175;-83
2021/11/02 02:00:13;;;;;;;69.88;42.13;;;;;;;6.88;67.13;94397.31;4877002;29;20413;-83
2021/11/02 02:02:47;;;;;;;158.73;68.72;;;;;;;6.94;66.55;94396.41;4876601;29;20029;-82
2021/11/02 02:05:46;;;;;;;186.48;78.70;;;;;;;6.98;65.78;94384.63;4907099;29;20064;-82
2021/11/02 02:08:33;;;;;;;176.00;78.50;;;;;;;7.01;65.59;94376.47;4891101;29;20058;-83
2021/11/02 02:11:21;;;;;;;212.88;84.32;;;;;;;7.00;66.96;94377.47;4901408;29;20072;-83
2021/11/02 02:13:54;;;;;;;79.57;43.50;;;;;;;7.08;67.00;94377.13;4888392;29;20067;-83
2021/11/02 02:16:46;;;;;;;87.47;46.65;;;;;;;7.19;67.18;94362.69;4887126;29;20036;-83
2021/11/02 02:19:42;;;;;;;134.85;61.33;;;;;;;7.30;66.57;94353.34;4903224;29;20044;-83
2021/11/02 02:24:42;;;;;;;109.53;53.95;;;;;;;7.38;66.21;94365.97;5792307;23;20048;-82
2021/11/02 02:29:34;;;;;;;153.10;70.78;;;;;;;7.48;65.77;94358.44;4966268;23;20509;-83
2021/11/02 02:31:59;;;;;;;129.75;65.07;;;;;;;7.55;65.35;94348.00;4901366;29;20028;-83
2021/11/02 02:34:25;;;;;;;105.80;53.50;;;;;;;7.59;65.50;94336.97;4884700;29;20035;-82
2021/11/02 02:36:51;;;;;;;84.57;47.33;;;;;;;7.55;66.00;94337.66;4891833;29;20087;-82
2021/11/02 02:39:17;;;;;;;97.40;49.30;;;;;;;7.61;65.62;94337.53;4908395;29;20496;-82
2021/11/02 02:41:42;;;;;;;98.07;53.78;;;;;;;7.67;65.90;94331.47;4885300;29;20115;-82
2021/11/02 02:44:08;;;;;;;119.43;55.50;;;;;;;7.67;65.47;94331.47;4882665;29;20036;-82
2021/11/02 02:46:33;;;;;;;116.88;64.32;;;;;;;7.64;65.13;94331.13;4883267;29;20033;-82
2021/11/02 02:49:19;;;;;;;114.50;60.30;;;;;;;7.58;65.32;94330.22;4908839;29;20055;-82
2021/11/02 02:51:44;;;;;;;140.75;74.22;;;;;;;7.59;64.60;94331.78;4905644;29;20077;-82
2021/11/02 02:54:11;;;;;;;172.82;92.32;;;;;;;7.53;65.43;94330.91;4924900;29;20469;-82
2021/11/02 02:56:37;;;;;;;157.75;84.97;;;;;;;7.48;65.85;94338.56;4885078;29;20044;-82
2021/11/02 02:59:03;;;;;;;140.25;76.07;;;;;;;7.49;65.90;94326.41;4924885;29;20083;-82
2021/11/02 03:01:28;;;;;;;132.13;79.78;;;;;;;7.58;65.57;94332.03;4876808;29;20040;-83
2021/11/02 03:03:57;;;;;;;165.77;89.93;;;;;;;7.63;65.69;94340.69;4893365;29;20032;-83
2021/11/02 03:06:42;;;;;;;163.38;86.80;;;;;;;7.68;65.91;94342.63;4877010;29;20175;-83
2021/11/02 03:09:08;;;;;;;140.95;78.25;;;;;;;7.69;66.23;94344.19;4892090;29;20131;-83
2021/11/02 03:11:34;;;;;;;136.88;73.53;;;;;;;7.67;66.54;94334.06;4909690;29;20032;-83
2021/11/02 03:14:02;;;;;;;119.93;71.50;;;;;;;7.72;67.57;94321.22;4894007;29;20032;-84
2021/11/02 03:16:44;;;;;;;103.50;62.85;;;;;;;7.77;67.67;94310.97;4884553;29;20080;-83
2021/11/02 03:44:35;;;;;;;71.13;41.45;;;;;;;8.27;65.39;94284.53;5514921;23;20058;-83
2021/11/02 03:55:27;;;;;;;98.88;54.78;;;;;;;8.34;65.04;94248.19;4873625;29;20044;-84
2021/11/02 03:57:57;;;;;;;88.55;49.50;;;;;;;8.29;65.91;94250.63;4871481;29;20041;-84
2021/11/02 04:23:25;;;;;;;171.35;106.43;;;;;;;8.12;66.05;94251.38;4935936;29;20115;-83
2021/11/02 05:56:12;;;;;;;360.25;210.35;;;;;;;8.98;65.36;94217.66;4961012;29;20402;-85
2021/11/02 05:58:44;;;;;;;405.42;226.90;;;;;;;9.07;64.83;94215.44;4940842;29;20046;-86
2021/11/02 06:07:02;;;;;;;407.45;232.45;;;;;;;9.23;64.60;94210.25;4955950;29;20069;-85
2021/11/02 06:09:51;;;;;;;395.25;208.88;;;;;;;9.29;64.45;94214.50;4940209;29;20043;-84
2021/11/02 06:29:02;;;;;;;205.75;114.22;;;;;;;9.78;64.44;94217.22;4959732;29;20046;-84
2021/11/02 06:31:37;;;;;;;161.55;89.97;;;;;;;9.87;64.26;94209.78;4915512;29;20130;-85
2021/11/02 06:34:23;;;;;;;160.88;88.55;;;;;;;9.93;64.35;94217.41;4920538;29;20101;-85
2021/11/02 06:42:40;;;;;;;104.72;59.10;;;;;;;10.08;63.32;94206.38;4965014;28;20042;-85
2021/11/02 06:54:39;;;;;;;128.82;66.07;;;;;;;10.30;64.20;94205.63;4949215;28;20110;-79
2021/11/02 07:25:14;;;;;;;97.38;44.05;;;;;;;11.19;61.46;94205.84;4945476;29;20024;-80
2021/11/02 08:48:05;;;;;;;144.88;93.50;;;;;;;11.58;68.41;94216.00;4929108;29;20036;-78
2021/11/02 08:50:40;;;;;;;154.43;98.15;;;;;;;11.63;68.61;94210.81;4956479;28;20030;-78
2021/11/02 08:53:07;;;;;;;140.88;94.13;;;;;;;11.68;68.89;94216.06;4943459;29;20035;-79
2021/11/02 08:55:36;;;;;;;139.30;86.25;;;;;;;11.67;68.86;94217.88;4911336;29;20031;-78
2021/11/02 08:58:02;;;;;;;219.95;128.88;;;;;;;11.67;68.66;94214.47;4953422;29;20027;-78
2021/11/02 09:00:34;;;;;;;165.75;102.00;;;;;;;11.72;68.16;94219.75;4935694;29;20023;-78
2021/11/02 09:03:11;;;;;;;158.82;97.95;;;;;;;11.71;67.44;94218.16;4909457;29;20043;-78
2021/11/02 09:05:37;;;;;;;146.60;86.78;;;;;;;11.68;67.55;94214.22;4956021;28;20482;-77
2021/11/02 09:08:03;;;;;;;133.57;78.18;;;;;;;11.58;67.85;94221.22;4936801;29;20058;-77
2021/11/02 09:10:28;;;;;;;96.88;58.45;;;;;;;11.55;67.85;94230.31;4908929;29;20073;-78
2021/11/02 09:12:55;;;;;;;104.93;59.47;;;;;;;11.58;67.95;94234.25;4954442;29;20043;-79
2021/11/02 09:15:31;;;;;;;87.20;50.40;;;;;;;11.42;68.13;94218.53;4942904;28;20031;-77
2021/11/02 09:17:57;;;;;;;92.82;54.17;;;;;;;11.34;68.45;94228.59;4931640;29;20042;-77
2021/11/02 09:20:24;;;;;;;91.53;54.00;;;;;;;11.26;68.94;94229.88;4959590;28;20807;-77
2021/11/02 09:22:49;;;;;;;73.78;43.35;;;;;;;11.09;68.87;94229.22;4927262;29;20037;-77
2021/11/02 09:25:16;;;;;;;76.57;43.13;;;;;;;11.03;69.71;94228.38;4944631;29;20032;-78
2021/11/02 09:27:44;;;;;;;79.05;47.05;;;;;;;10.99;70.23;94223.94;4933555;28;20514;-78
2021/11/02 09:30:10;;;;;;;85.97;48.28;;;;;;;10.94;70.30;94229.09;4945275;29;20027;-78
2021/11/02 09:32:36;;;;;;;81.63;45.63;;;;;;;10.83;70.65;94223.03;4943723;29;20038;-78
2021/11/02 09:35:02;;;;;;;79.15;44.13;;;;;;;10.92;70.41;94212.97;4929710;29;20035;-77
2021/11/02 09:37:32;;;;;;;82.63;41.83;;;;;;;10.86;70.57;94206.13;4944994;28;20093;-78
2021/11/02 09:40:12;;;;;;;73.80;41.13;;;;;;;10.88;70.72;94191.06;4963289;28;20038;-77
2021/11/02 09:43:09;;;;;;;62.80;34.35;;;;;;;10.88;71.17;94209.25;4949084;28;20027;-80
2021/11/02 09:46:04;;;;;;;69.72;35.42;;;;;;;10.75;70.82;94190.47;4940374;29;20054;-80
2021/11/02 09:48:35;;;;;;;46.50;25.75;;;;;;;10.67;70.77;94184.91;4949693;29;20034;-81
2021/11/02 09:51:38;;;;;;;44.22;25.33;;;;;;;10.34;71.79;94176.28;4966582;28;20049;-80
2021/11/02 09:54:23;;;;;;;;;;;;;;;10.34;72.43;94165.13;4963614;28;20494;-76
2021/11/02 09:57:13;;;;;;;35.03;23.00;;;;;;;10.30;71.72;94166.66;4952431;28;19918;-78
2021/11/02 10:00:04;;;;;;;45.20;24.30;;;;;;;10.30;72.06;94166.66;4953796;29;20039;-78
2021/11/02 10:02:43;;;;;;;46.83;28.15;;;;;;;10.30;72.63;94162.22;4952949;29;20031;-78
2021/11/02 10:05:33;;;;;;;56.08;31.98;;;;;;;10.35;72.76;94164.09;4964291;28;20039;-78
2021/11/02 10:08:12;;;;;;;53.65;33.42;;;;;;;10.38;73.27;94153.19;4965006;28;20125;-77
2021/11/02 10:10:39;;;;;;;67.40;37.42;;;;;;;9.83;75.74;94152.34;4956758;29;20039;-77
2021/11/02 10:13:23;;;;;;;63.72;37.08;;;;;;;9.77;76.42;94157.75;4965106;28;20027;-79
2021/11/02 10:16:08;;;;;;;62.95;35.13;;;;;;;10.04;75.59;94157.75;4948679;29;20482;-78
2021/11/02 10:18:40;;;;;;;59.83;34.33;;;;;;;10.29;75.19;94144.28;4955941;29;20035;-80
2021/11/02 10:21:46;;;;;;;58.17;33.83;;;;;;;10.28;74.10;94150.53;4929787;29;20028;-80
2021/11/02 10:24:22;;;;;;;56.58;33.35;;;;;;;10.47;74.11;94128.34;4961880;28;20027;-79
2021/11/02 10:27:17;;;;;;;61.08;35.30;;;;;;;10.68;73.18;94134.47;4951766;28;20046;-78
2021/11/02 10:30:13;;;;;;;64.90;36.78;;;;;;;10.91;72.53;94164.56;4960089;28;20024;-80
2021/11/02 10:32:41;;;;;;;66.40;35.78;;;;;;;11.03;72.96;94149.53;4953212;28;20938;-80
2021/11/02 10:35:29;;;;;;;69.55;37.67;;;;;;;11.09;72.43;94148.56;4922894;29;20027;-78
2021/11/02 10:38:04;;;;;;;71.50;37.30;;;;;;;11.06;71.57;94128.22;4926794;29;20055;-79
2021/11/02 10:40:59;;;;;;;65.90;34.30;;;;;;;10.94;71.74;94130.25;4929835;29;20059;-80
2021/11/02 10:43:40;;;;;;;53.58;30.92;;;;;;;10.63;72.39;94122.22;4955822;28;20070;-80
2021/11/02 10:46:07;;;;;;;44.53;27.65;;;;;;;10.48;72.40;94117.69;4963247;28;20035;-79
2021/11/02 10:48:48;;;;;;;52.25;32.10;;;;;;;10.35;74.58;94128.50;4929119;29;20039;-79
2021/11/02 10:51:26;;;;;;;44.00;26.40;;;;;;;10.01;74.64;94114.09;4960785;28;20110;-79
2021/11/02 10:54:20;;;;;;;46.53;27.05;;;;;;;9.85;76.45;94107.97;4957782;28;20038;-79
2021/11/02 10:57:23;;;;;;;53.95;28.83;;;;;;;9.74;76.26;94121.88;4944680;29;20035;-78
2021/11/02 10:59:49;;;;;;;46.13;27.75;;;;;;;9.97;77.20;94124.19;4959961;28;20158;-79
2021/11/02 11:02:28;;;;;;;43.42;28.10;;;;;;;10.20;76.32;94125.72;4923410;28;20113;-79
2021/11/02 11:04:58;;;;;;;49.22;28.60;;;;;;;10.23;77.13;94136.44;4943375;29;20054;-79
2021/11/02 11:07:26;;;;;;;47.45;26.85;;;;;;;10.54;75.96;94131.50;4945458;29;20035;-79
2021/11/02 11:09:55;;;;;;;47.72;28.38;;;;;;;10.62;74.99;94118.06;4946943;29;20530;-79
2021/11/02 11:12:21;;;;;;;50.55;31.45;;;;;;;10.53;75.26;94124.75;4955406;28;20039;-79
2021/11/02 11:14:46;;;;;;;46.22;28.38;;;;;;;10.71;75.38;94113.16;4945034;29;20031;-79
2021/11/02 11:17:16;;;;;;;42.50;27.35;;;;;;;10.83;75.13;94117.16;4913433;29;20032;-79
2021/11/02 11:20:02;;;;;;;48.55;29.63;;;;;;;10.93;74.15;94116.47;4946027;29;20098;-79
2021/11/02 11:22:28;;;;;;;50.30;28.25;;;;;;;11.12;72.73;94122.03;4959625;28;20043;-79
2021/11/02 11:25:07;;;;;;;42.10;25.98;;;;;;;10.88;73.08;94120.84;4930859;29;20035;-79
2021/11/02 11:27:34;;;;;;;34.85;23.35;;;;;;;10.71;73.88;94116.56;4946876;29;20027;-79
2021/11/02 11:30:06;;;;;;;37.20;23.63;;;;;;;10.87;74.14;94124.47;4954404;28;20039;-79
2021/11/02 11:32:34;;;;;;;45.75;25.48;;;;;;;11.08;73.94;94121.75;4944453;29;20039;-79
2021/11/02 11:35:02;;;;;;;41.15;22.90;;;;;;;11.23;72.79;94128.09;4932032;28;20041;-79
2021/11/02 11:37:27;;;;;;;39.28;21.80;;;;;;;11.19;72.57;94127.00;4946213;28;20095;-79
2021/11/02 11:39:57;;;;;;;40.90;21.75;;;;;;;11.14;73.57;94122.56;4945873;28;20405;-78
2021/11/02 11:42:22;;;;;;;33.92;21.08;;;;;;;11.27;72.90;94119.53;4961113;28;20097;-79
2021/11/02 11:44:52;;;;;;;34.13;21.92;;;;;;;11.49;72.35;94113.38;4913386;29;20039;-80
2021/11/02 11:47:24;;;;;;;32.80;20.05;;;;;;;11.63;71.39;94117.06;4944754;28;20027;-79
2021/11/02 11:49:51;;;;;;;32.00;21.10;;;;;;;11.56;71.36;94113.94;4946066;29;20106;-79
2021/11/02 11:52:23;;;;;;;40.15;22.50;;;;;;;11.74;71.61;94108.28;4944833;28;20121;-79
2021/11/02 11:54:50;;;;;;;36.53;22.05;;;;;;;11.91;71.32;94098.44;4955533;29;20038;-79
2021/11/02 11:57:45;;;;;;;35.33;22.35;;;;;;;12.19;70.66;94091.19;4942090;29;20039;-80
2021/11/02 12:00:11;;;;;;;27.52;17.38;;;;;;;12.14;69.35;94091.97;4932669;29;20055;-80
2021/11/02 12:02:46;;;;;;;25.02;16.77;;;;;;;12.33;69.03;94097.47;4910843;29;20490;-80
2021/11/02 12:05:18;;;;;;;24.77;15.88;;;;;;;12.03;69.04;94092.97;4942917;29;20035;-80
2021/11/02 12:07:54;;;;;;;23.80;14.60;;;;;;;11.83;69.88;94091.13;4955424;29;20031;-79
2021/11/02 12:10:26;;;;;;;21.65;14.52;;;;;;;12.02;69.47;94084.38;4964578;28;20112;-79
2021/11/02 12:12:52;;;;;;;22.55;15.40;;;;;;;12.05;69.01;94079.72;4942115;29;20523;-78
2021/11/02 12:15:18;;;;;;;25.10;16.20;;;;;;;11.92;69.55;94073.97;4941255;29;20043;-78
2021/11/02 12:17:44;;;;;;;20.05;14.45;;;;;;;11.68;70.06;94076.19;4948117;29;20031;-78
2021/11/02 12:20:15;;;;;;;24.45;13.55;;;;;;;11.63;70.20;94080.63;4947325;29;20039;-78
2021/11/02 12:22:49;;;;;;;14.13;11.20;;;;;;;11.51;69.90;94087.84;4948697;29;20027;-79
2021/11/02 12:25:21;;;;;;;12.98;10.52;;;;;;;11.41;70.52;94080.81;4913696;28;20082;-78
2021/11/02 12:27:47;;;;;;;11.23;8.50;;;;;;;11.22;70.75;94087.47;4948181;28;20067;-79
2021/11/02 12:30:14;;;;;;;12.98;9.20;;;;;;;11.06;71.83;94073.59;4942879;29;20039;-79
2021/11/02 12:32:47;;;;;;;8.77;7.88;;;;;;;11.18;71.09;94081.22;4947461;29;20023;-79
2021/11/02 12:35:19;;;;;;;15.55;8.27;;;;;;;11.16;71.14;94078.84;4929641;29;20035;-79
2021/11/02 12:37:53;;;;;;;9.55;8.20;;;;;;;11.04;71.90;94078.25;4946397;28;20114;-78
2021/11/02 12:40:31;;;;;;;10.20;7.93;;;;;;;11.14;72.18;94078.34;4952143;28;20031;-79
2021/11/02 12:42:57;;;;;;;14.10;8.82;;;;;;;11.20;71.95;94077.31;4962774;28;20027;-80
2021/11/02 12:45:25;;;;;;;11.20;8.43;;;;;;;11.33;71.63;94082.06;4947074;29;20039;-79
2021/11/02 12:47:51;;;;;;;9.00;7.80;;;;;;;11.48;70.98;94072.75;4961926;28;20043;-79
2021/11/02 12:50:18;;;;;;;17.52;8.70;;;;;;;11.63;71.48;94075.41;4963600;28;20082;-80
2021/11/02 12:52:44;;;;;;;10.35;8.45;;;;;;;11.72;70.00;94084.31;4936914;29;20459;-79
2021/11/02 12:55:11;;;;;;;11.30;8.25;;;;;;;11.72;70.03;94084.31;4950234;29;20031;-78
2021/11/02 12:57:44;;;;;;;15.52;8.50;;;;;;;11.76;69.91;94082.75;4976311;28;20059;-79
2021/11/02 13:00:15;;;;;;;8.82;7.90;;;;;;;11.85;69.85;94083.81;4961731;29;20070;-79
2021/11/02 13:02:42;;;;;;;12.13;9.57;;;;;;;12.12;69.09;94093.28;4961325;28;20414;-77
2021/11/02 13:05:16;;;;;;;34.75;18.60;;;;;;;12.32;68.78;94093.28;4957996;29;20078;-79
2021/11/02 13:07:43;;;;;;;30.33;20.25;;;;;;;12.45;67.81;94092.78;4953921;29;20486;-78
2021/11/02 13:10:20;;;;;;;47.53;26.33;;;;;;;12.49;68.14;94093.81;4958140;29;20024;-79
2021/11/02 13:12:54;;;;;;;42.08;25.55;;;;;;;12.54;67.93;94086.00;4950074;29;20050;-80
2021/11/02 13:15:19;;;;;;;41.10;25.25;;;;;;;12.61;67.34;94090.97;4957394;28;20034;-80
2021/11/02 13:17:47;;;;;;;41.67;24.83;;;;;;;12.71;67.26;94090.19;4966280;28;20047;-80
2021/11/02 13:20:26;;;;;;;43.50;27.70;;;;;;;12.83;67.63;94093.28;4950854;29;20042;-76
2021/11/02 13:22:53;;;;;;;44.15;27.83;;;;;;;12.92;66.62;94086.50;4952660;29;20098;-80
2021/11/02 13:25:23;;;;;;;42.10;23.33;;;;;;;13.05;66.02;94091.19;4953267;29;20030;-79
2021/11/02 13:27:51;;;;;;;41.92;25.52;;;;;;;13.13;66.56;94080.19;4947192;29;20035;-76
2021/11/02 13:30:36;;;;;;;36.80;23.73;;;;;;;13.25;66.00;94092.97;4957063;28;20035;-79
2021/11/02 13:33:19;;;;;;;35.33;21.63;;;;;;;13.31;65.91;94084.06;4932843;29;20090;-79
2021/11/02 13:35:56;;;;;;;37.40;20.90;;;;;;;13.40;66.07;94072.03;4955820;28;20102;-80
2021/11/02 13:38:32;;;;;;;39.10;25.52;;;;;;;13.48;65.46;94076.69;4956251;28;20039;-79
2021/11/02 13:41:37;;;;;;;33.97;21.25;;;;;;;13.57;64.74;94084.78;4949386;29;20031;-79
2021/11/02 13:44:09;;;;;;;29.63;17.88;;;;;;;13.56;63.69;94091.06;4911448;29;20209;-79
2021/11/02 13:46:37;;;;;;;28.70;18.38;;;;;;;13.60;64.05;94088.69;4925769;29;20138;-79
2021/11/02 13:49:07;;;;;;;27.98;19.40;;;;;;;13.60;63.94;94092.06;4946885;28;20080;-80
2021/11/02 13:51:33;;;;;;;23.65;12.48;;;;;;;13.54;63.34;94101.00;4931656;29;20027;-79
2021/11/02 13:54:00;;;;;;;22.48;16.35;;;;;;;13.49;62.93;94103.59;4933338;29;20478;-79
2021/11/02 13:56:27;;;;;;;15.13;10.85;;;;;;;13.31;62.56;94109.41;4914476;28;20035;-78
2021/11/02 13:58:53;;;;;;;19.75;10.27;;;;;;;12.91;63.57;94100.59;4944092;29;20046;-80
2021/11/02 14:01:31;;;;;;;13.80;9.50;;;;;;;13.02;63.06;94103.97;4947476;28;20035;-79
2021/11/02 14:04:10;;;;;;;14.30;10.40;;;;;;;12.88;63.73;94101.13;4960607;28;20031;-80
2021/11/02 14:06:38;;;;;;;16.58;9.68;;;;;;;12.89;63.21;94105.28;4954999;29;20058;-80
2021/11/02 14:09:08;;;;;;;14.00;10.82;;;;;;;13.07;63.46;94101.34;4961269;28;20043;-79
2021/11/02 14:11:35;;;;;;;14.73;10.88;;;;;;;13.11;63.54;94097.94;4939840;28;20058;-80
2021/11/02 14:14:04;;;;;;;18.00;12.63;;;;;;;13.15;63.35;94101.56;4942270;29;20114;-80
2021/11/02 14:16:40;;;;;;;19.35;12.52;;;;;;;13.08;63.58;94095.88;4945179;29;20138;-79
2021/11/02 14:19:43;;;;;;;18.70;13.77;;;;;;;13.13;64.40;94093.22;4956646;29;20557;-81
2021/11/02 14:24:41;;;;;;;12.50;9.50;;;;;;;12.92;64.49;94102.16;4940985;23;19923;-79
2021/11/02 14:27:11;;;;;;;18.50;7.78;;;;;;;12.83;64.42;94096.66;4918154;29;20067;-79
2021/11/02 14:29:54;;;;;;;12.57;9.05;;;;;;;12.74;64.60;94093.03;4899688;29;20049;-78
2021/11/02 14:32:35;;;;;;;12.23;7.93;;;;;;;12.82;63.88;94091.72;4871064;29;20077;-79
2021/11/02 14:35:01;;;;;;;13.30;8.05;;;;;;;12.82;64.01;94092.50;4916712;29;20032;-79
2021/11/02 14:37:27;;;;;;;12.40;8.98;;;;;;;12.35;65.39;94108.41;4901303;29;20040;-80
2021/11/02 14:39:56;;;;;;;10.63;8.25;;;;;;;12.36;65.52;94109.97;4885760;29;20564;-79
2021/11/02 14:42:39;;;;;;;10.02;7.70;;;;;;;12.17;66.34;94116.72;4900935;29;20112;-79
2021/11/02 14:45:06;;;;;;;10.60;8.50;;;;;;;12.13;66.51;94110.47;4903193;29;20031;-80
2021/11/02 14:47:36;;;;;;;11.05;8.75;;;;;;;11.94;67.12;94118.00;4913705;29;20075;-79
2021/11/02 14:50:23;;;;;;;12.95;8.68;;;;;;;11.78;67.52;94104.09;4907782;29;20043;-80
2021/11/02 14:52:48;;;;;;;12.48;9.10;;;;;;;11.73;67.59;94114.53;4909024;29;20048;-78
2021/11/02 14:55:13;;;;;;;16.42;9.85;;;;;;;11.68;68.02;94112.66;4904443;29;20067;-81
2021/11/02 14:57:50;;;;;;;15.30;9.07;;;;;;;11.62;68.12;94118.13;4885825;29;20072;-80
2021/11/02 15:00:16;;;;;;;12.52;9.68;;;;;;;11.42;68.61;94121.41;4918573;29;20040;-81
2021/11/02 15:02:42;;;;;;;11.95;9.18;;;;;;;11.25;68.94;94126.03;4879019;29;20059;-79
2021/11/02 15:05:15;;;;;;;10.25;9.07;;;;;;;11.23;69.51;94133.31;4895146;29;20036;-79
2021/11/02 15:07:43;;;;;;;12.02;9.25;;;;;;;11.18;69.22;94131.44;4893305;29;20052;-81
2021/11/02 15:10:11;;;;;;;11.40;9.20;;;;;;;11.19;69.40;94133.00;4900951;29;20055;-81
2021/11/02 15:12:37;;;;;;;11.88;9.52;;;;;;;11.16;69.82;94125.69;4901585;29;20032;-81
2021/11/02 15:15:03;;;;;;;17.17;9.23;;;;;;;11.10;69.90;94124.13;4917211;29;20044;-81
2021/11/02 15:17:28;;;;;;;16.58;10.48;;;;;;;11.15;69.79;94121.53;4918742;29;20042;-81
2021/11/02 15:19:54;;;;;;;13.38;9.52;;;;;;;11.28;69.83;94134.09;4918539;29;20175;-80
2021/11/02 15:22:20;;;;;;;17.48;11.07;;;;;;;11.32;69.59;94137.75;4917236;29;20575;-80
2021/11/02 15:24:50;;;;;;;15.70;11.55;;;;;;;11.31;69.36;94127.59;4888009;29;20042;-80
2021/11/02 15:27:24;;;;;;;15.05;11.70;;;;;;;11.30;69.99;94132.03;4903159;29;20492;-80
2021/11/02 15:29:51;;;;;;;18.38;12.10;;;;;;;11.35;69.81;94120.84;4913143;29;20039;-80
2021/11/02 15:32:18;;;;;;;14.18;11.50;;;;;;;11.24;69.54;94120.03;4886464;29;20036;-80
2021/11/02 15:34:52;;;;;;;13.85;11.55;;;;;;;11.28;70.25;94135.91;4888021;29;20032;-83
2021/11/02 15:37:25;;;;;;;17.95;13.38;;;;;;;11.29;69.64;94127.06;4921173;29;20468;-83
2021/11/02 15:40:03;;;;;;;18.08;11.60;;;;;;;11.25;69.86;94137.22;4909320;29;20043;-83
2021/11/02 15:42:28;;;;;;;18.73;12.35;;;;;;;11.28;69.86;94138.53;4916405;29;20048;-82
2021/11/02 15:45:04;;;;;;;24.23;12.75;;;;;;;11.30;69.90;94129.44;4915973;29;20036;-82
2021/11/02 15:47:31;;;;;;;16.95;11.75;;;;;;;11.32;69.85;94139.59;4916531;29;20428;-82
2021/11/02 15:49:59;;;;;;;16.90;13.05;;;;;;;11.25;70.25;94132.00;4900194;29;20070;-81
2021/11/02 15:52:26;;;;;;;15.88;12.00;;;;;;;11.20;70.46;94126.75;4879785;29;20036;-81
2021/11/02 15:54:52;;;;;;;17.50;12.88;;;;;;;11.25;70.25;94139.81;4900265;29;20257;-82
2021/11/02 15:57:18;;;;;;;18.30;13.30;;;;;;;11.24;70.13;94140.84;4900672;29;20134;-81
2021/11/02 15:59:43;;;;;;;20.42;13.27;;;;;;;11.16;70.49;94125.69;4901877;29;20036;-82
2021/11/02 16:02:09;;;;;;;23.63;14.98;;;;;;;10.81;71.72;94121.84;4887337;29;20095;-81
2021/11/02 16:04:34;;;;;;;23.67;16.20;;;;;;;10.44;73.33;94136.63;4900574;29;20072;-80
2021/11/02 16:07:04;;;;;;;25.27;15.60;;;;;;;10.50;73.44;94140.84;4917509;29;20035;-81
2021/11/02 16:09:45;;;;;;;24.05;15.63;;;;;;;10.51;73.33;94158.00;4917321;29;20032;-81
2021/11/02 16:12:35;;;;;;;19.50;14.20;;;;;;;10.56;73.01;94160.63;4917460;29;20036;-81
2021/11/02 16:15:17;;;;;;;22.98;15.88;;;;;;;10.40;73.76;94154.50;4893285;29;20036;-81
2021/11/02 16:17:47;;;;;;;26.05;17.05;;;;;;;10.46;73.41;94165.75;4907739;29;20097;-81
2021/11/02 16:20:15;;;;;;;30.90;16.50;;;;;;;10.48;73.42;94163.69;4876524;29;20044;-81
2021/11/02 16:22:54;;;;;;;25.15;16.95;;;;;;;10.52;72.73;94159.56;4892819;29;20032;-81
2021/11/02 16:25:19;;;;;;;30.30;17.42;;;;;;;10.59;72.76;94169.78;4916927;29;20111;-80
2021/11/02 16:28:12;;;;;;;31.55;18.63;;;;;;;10.60;72.35;94184.34;4884177;29;20032;-80
2021/11/02 16:30:43;;;;;;;25.73;17.08;;;;;;;10.59;72.26;94191.34;4914822;29;20076;-81
2021/11/02 16:33:09;;;;;;;70.38;31.05;;;;;;;10.59;72.64;94180.19;4915070;29;20036;-81
2021/11/02 16:35:35;;;;;;;159.23;70.88;;;;;;;10.58;71.87;94173.41;4899066;29;20143;-75
2021/11/02 16:41:29;;;;;;;88.20;42.97;;;;;;;10.44;71.78;94186.00;4921969;29;20107;-79
2021/11/02 16:44:01;;;;;;;34.33;19.67;;;;;;;10.26;72.85;94186.38;4921729;29;20040;-79